createdAt,value
2018-08-14T00:00:43.756Z,96978.03
2018-08-14T00:03:11.211Z,96971.52
2018-08-14T00:05:38.778Z,96969.63
2018-08-14T00:08:06.215Z,96972.11
2018-08-14T00:10:33.685Z,96967.62
2018-08-14T00:13:01.944Z,96978.25
2018-08-14T00:15:29.426Z,96973.34
2018-08-14T00:17:56.884Z,96975.08
2018-08-14T00:20:24.320Z,96972.52
2018-08-14T00:22:51.747Z,96975.34
2018-08-14T00:25:19.159Z,96971.47
2018-08-14T00:27:46.737Z,96965.79
2018-08-14T00:30:14.127Z,96969.91
2018-08-14T00:32:41.610Z,96979.31
2018-08-14T00:35:09.059Z,96979.34
2018-08-14T00:37:36.490Z,96976.93
2018-08-14T00:40:04.184Z,96981.38
2018-08-14T00:42:31.622Z,96978.90
2018-08-14T00:44:59.099Z,96977.50
2018-08-14T00:47:26.550Z,96973.07
2018-08-14T00:49:54.023Z,96971.87
2018-08-14T00:52:21.493Z,96979.34
2018-08-14T00:54:48.922Z,96971.80
2018-08-14T00:57:16.482Z,96985.05
2018-08-14T00:59:43.937Z,96985.39
2018-08-14T01:02:11.449Z,96987.02
2018-08-14T01:04:38.843Z,96977.63
2018-08-14T01:07:06.305Z,96981.03
2018-08-14T01:09:33.739Z,96982.13
2018-08-14T01:12:02.080Z,96980.03
2018-08-14T01:14:29.564Z,96987.62
2018-08-14T01:16:56.991Z,96988.04
2018-08-14T01:19:24.471Z,96982.23
2018-08-14T01:21:52.042Z,96985.94
2018-08-14T01:24:19.644Z,96989.56
2018-08-14T01:26:47.254Z,96990.76
2018-08-14T01:29:14.712Z,96986.41
2018-08-14T01:31:42.200Z,96988.40
2018-08-14T01:34:09.648Z,96985.32
2018-08-14T01:36:37.109Z,96995.96
2018-08-14T01:39:04.533Z,96990.11
2018-08-14T01:41:32.048Z,97001.25
2018-08-14T01:43:59.486Z,97000.39
2018-08-14T01:46:26.929Z,97009.08
2018-08-14T01:48:54.368Z,96999.45
2018-08-14T01:51:21.773Z,97005.91
2018-08-14T01:53:49.210Z,97007.28
2018-08-14T01:56:16.673Z,97002.43
2018-08-14T01:58:44.258Z,97013.44
2018-08-14T02:01:11.727Z,97009.52
2018-08-14T02:03:39.119Z,97009.09
2018-08-14T02:06:06.559Z,97001.06
2018-08-14T02:08:34.057Z,97006.84
2018-08-14T02:11:01.454Z,96992.34
2018-08-14T02:13:28.935Z,96998.77
2018-08-14T02:15:56.431Z,96995.14
2018-08-14T02:18:23.856Z,96995.06
2018-08-14T02:20:51.331Z,96998.44
2018-08-14T02:23:18.746Z,96995.88
2018-08-14T02:25:46.286Z,97002.90
2018-08-14T02:28:13.698Z,97005.70
2018-08-14T02:30:41.150Z,96998.70
2018-08-14T02:33:08.568Z,97002.18
2018-08-14T02:35:36.020Z,97011.02
2018-08-14T02:38:03.430Z,97008.03
2018-08-14T02:40:30.896Z,97005.05
2018-08-14T02:42:58.378Z,97002.58
2018-08-14T02:45:25.779Z,96999.63
2018-08-14T02:47:53.256Z,96999.45
2018-08-14T02:50:20.732Z,96997.29
2018-08-14T02:52:48.964Z,96993.03
2018-08-14T02:55:16.451Z,97001.84
2018-08-14T02:57:43.862Z,97001.89
2018-08-14T03:00:11.345Z,97002.52
2018-08-14T03:02:38.777Z,96994.04
2018-08-14T03:05:06.263Z,96995.22
2018-08-14T03:07:33.732Z,96994.98
2018-08-14T03:10:01.134Z,96992.15
2018-08-14T03:12:28.594Z,96994.12
2018-08-14T03:14:56.015Z,96991.88
2018-08-14T03:17:23.427Z,97002.52
2018-08-14T03:19:50.892Z,97009.81
2018-08-14T03:22:18.340Z,97008.07
2018-08-14T03:24:45.922Z,97009.31
2018-08-14T03:27:13.339Z,97013.13
2018-08-14T03:29:40.810Z,97011.47
2018-08-14T03:32:08.309Z,97015.73
2018-08-14T03:34:35.727Z,97015.88
2018-08-14T03:37:03.168Z,97017.61
2018-08-14T03:39:30.622Z,97013.27
2018-08-14T03:41:58.092Z,97018.19
2018-08-14T03:44:25.539Z,97013.96
2018-08-14T03:46:52.954Z,97014.50
2018-08-14T03:49:20.418Z,97015.17
2018-08-14T03:51:47.890Z,97019.58
2018-08-14T03:54:15.309Z,97026.09
2018-08-14T03:56:42.726Z,97024.96
2018-08-14T03:59:10.163Z,97025.75
2018-08-14T04:01:37.734Z,97026.97
2018-08-14T04:04:05.155Z,97032.47
2018-08-14T04:06:32.604Z,97027.16
2018-08-14T04:09:00.016Z,97024.38
2018-08-14T04:11:27.410Z,97031.77
2018-08-14T04:13:54.865Z,97031.03
2018-08-14T04:16:22.353Z,97035.20
2018-08-14T04:18:49.771Z,97036.06
2018-08-14T04:21:17.248Z,97036.70
2018-08-14T04:23:44.701Z,97034.14
2018-08-14T04:26:12.159Z,97039.31
2018-08-14T04:28:39.675Z,97044.33
2018-08-14T04:31:07.112Z,97043.49
2018-08-14T04:33:34.590Z,97050.33
2018-08-14T04:36:02.140Z,97055.22
2018-08-14T04:38:29.656Z,97052.30
2018-08-14T04:40:57.083Z,97050.86
2018-08-14T04:43:24.532Z,97049.58
2018-08-14T04:45:52.035Z,97044.77
2018-08-14T04:48:19.513Z,97050.97
2018-08-14T04:50:46.981Z,97061.28
2018-08-14T04:53:15.210Z,97055.41
2018-08-14T04:55:42.711Z,97060.87
2018-08-14T04:58:10.116Z,97067.61
2018-08-14T05:00:37.557Z,97066.59
2018-08-14T05:03:05.001Z,97067.02
2018-08-14T05:05:32.644Z,97060.86
2018-08-14T05:08:00.096Z,97061.19
2018-08-14T05:10:27.518Z,97062.74
2018-08-14T05:12:54.961Z,97065.77
2018-08-14T05:15:22.426Z,97065.71
2018-08-14T05:17:49.972Z,97072.38
2018-08-14T05:20:17.482Z,97067.28
2018-08-14T05:22:45.015Z,97067.88
2018-08-14T05:25:12.585Z,97068.20
2018-08-14T05:27:39.974Z,97064.44
2018-08-14T05:30:07.418Z,97079.84
2018-08-14T05:32:34.945Z,97080.91
2018-08-14T05:35:02.371Z,97091.85
2018-08-14T05:37:29.800Z,97089.22
2018-08-14T05:39:57.332Z,97090.82
2018-08-14T05:42:24.737Z,97090.09
2018-08-14T05:44:52.285Z,97088.81
2018-08-14T05:47:19.864Z,97085.38
2018-08-14T05:49:47.325Z,97094.05
2018-08-14T05:52:14.761Z,97088.14
2018-08-14T05:54:42.197Z,97091.98
2018-08-14T05:57:09.627Z,97080.28
2018-08-14T05:59:37.092Z,97091.06
2018-08-14T06:02:04.541Z,97089.56
2018-08-14T06:04:32.003Z,97089.47
2018-08-14T06:06:59.474Z,97090.39
2018-08-14T06:09:26.916Z,97090.13
2018-08-14T06:11:54.332Z,97096.80
2018-08-14T06:14:21.920Z,97105.82
2018-08-14T06:16:49.397Z,97107.07
2018-08-14T06:19:16.834Z,97106.15
2018-08-14T06:21:44.278Z,97115.31
2018-08-14T06:24:11.690Z,97111.31
2018-08-14T06:26:39.137Z,97108.41
2018-08-14T06:29:06.665Z,97111.84
2018-08-14T06:31:34.307Z,97116.55
2018-08-14T06:34:01.739Z,97121.38
2018-08-14T06:36:29.144Z,97123.62
2018-08-14T06:38:56.559Z,97122.50
2018-08-14T06:41:24.049Z,97121.86
2018-08-14T06:43:51.452Z,97118.38
2018-08-14T06:46:18.912Z,97125.11
2018-08-14T06:48:46.393Z,97127.97
2018-08-14T06:51:13.880Z,97135.18
2018-08-14T06:53:41.325Z,97138.95
2018-08-14T06:56:08.769Z,97136.09
2018-08-14T06:58:36.208Z,97130.56
2018-08-14T07:01:03.656Z,97133.22
2018-08-14T07:03:31.126Z,97128.41
2018-08-14T07:05:58.636Z,97133.38
2018-08-14T07:08:26.079Z,97132.13
2018-08-14T07:10:53.578Z,97133.45
2018-08-14T07:13:21.090Z,97139.09
2018-08-14T07:15:48.512Z,97145.47
2018-08-14T07:18:16.005Z,97141.19
2018-08-14T07:20:43.406Z,97141.99
2018-08-14T07:23:10.884Z,97139.22
2018-08-14T07:25:38.345Z,97143.74
2018-08-14T07:28:05.812Z,97139.02
2018-08-14T07:30:33.550Z,97140.58
2018-08-14T07:33:01.064Z,97136.19
2018-08-14T07:35:28.500Z,97136.63
2018-08-14T07:37:56.002Z,97141.45
2018-08-14T07:40:24.110Z,97140.82
2018-08-14T07:42:51.614Z,97145.61
2018-08-14T07:45:19.031Z,97147.61
2018-08-14T07:47:46.495Z,97146.83
2018-08-14T07:50:14.116Z,97142.63
2018-08-14T07:52:41.533Z,97147.17
2018-08-14T07:55:09.261Z,97148.98
2018-08-14T07:57:36.761Z,97150.39
2018-08-14T08:00:04.268Z,97148.81
2018-08-14T08:02:31.802Z,97151.81
2018-08-14T08:04:59.253Z,97155.45
2018-08-14T08:07:26.799Z,97164.70
2018-08-14T08:09:54.275Z,97164.47
2018-08-14T08:12:21.789Z,97164.35
2018-08-14T08:14:49.213Z,97168.27
2018-08-14T08:17:16.634Z,97162.22
2018-08-14T08:19:44.188Z,97165.21
2018-08-14T08:22:11.690Z,97160.66
2018-08-14T08:24:39.832Z,97159.81
2018-08-14T08:27:07.621Z,97158.43
2018-08-14T08:29:35.171Z,97160.48
2018-08-14T08:32:02.604Z,97154.55
2018-08-14T08:34:30.477Z,97157.36
2018-08-14T08:36:57.875Z,97159.09
2018-08-14T08:39:25.300Z,97162.94
2018-08-14T08:41:52.795Z,97158.39
2018-08-14T08:44:20.279Z,97167.75
2018-08-14T08:46:47.714Z,97159.98
2018-08-14T08:49:15.185Z,97166.07
2018-08-14T08:51:42.716Z,97163.84
2018-08-14T08:54:10.144Z,97162.96
2018-08-14T08:56:37.629Z,97150.92
2018-08-14T08:59:05.079Z,97155.19
2018-08-14T09:01:32.476Z,97158.97
2018-08-14T09:03:59.977Z,97161.12
2018-08-14T09:06:27.422Z,97168.68
2018-08-14T09:08:54.926Z,97169.48
2018-08-14T09:11:22.334Z,97168.92
2018-08-14T09:13:49.777Z,97179.50
2018-08-14T09:16:17.322Z,97178.78
2018-08-14T09:18:44.826Z,97182.31
2018-08-14T09:21:12.295Z,97177.70
2018-08-14T09:23:39.767Z,97184.20
2018-08-14T09:26:07.255Z,97179.91
2018-08-14T09:28:34.740Z,97180.45
2018-08-14T09:31:02.172Z,97185.53
2018-08-14T09:33:29.585Z,97176.52
2018-08-14T09:35:57.126Z,97171.48
2018-08-14T09:38:24.569Z,97179.27
2018-08-14T09:40:52.004Z,97168.66
2018-08-14T09:43:19.433Z,97163.55
2018-08-14T09:45:46.903Z,97167.78
2018-08-14T09:48:14.916Z,97169.33
2018-08-14T09:50:42.385Z,97168.35
2018-08-14T09:53:09.888Z,97172.41
2018-08-14T09:55:36.858Z,97170.11
2018-08-14T09:58:04.704Z,97165.37
2018-08-14T10:00:32.233Z,97167.81
2018-08-14T10:02:59.825Z,97160.59
2018-08-14T10:05:27.326Z,97162.62
2018-08-14T10:07:54.852Z,97164.50
2018-08-14T10:10:21.957Z,97171.72
2018-08-14T10:12:49.403Z,97169.49
2018-08-14T10:15:16.531Z,97165.86
2018-08-14T10:17:43.694Z,97162.56
2018-08-14T10:20:13.802Z,97152.86
2018-08-14T10:22:41.748Z,97158.20
2018-08-14T10:25:08.831Z,97150.67
2018-08-14T10:27:36.613Z,97151.08
2018-08-14T10:30:04.088Z,97154.16
2018-08-14T10:32:31.092Z,97155.72
2018-08-14T10:34:58.973Z,97156.19
2018-08-14T10:37:26.439Z,97159.92
2018-08-14T10:39:53.934Z,97156.42
2018-08-14T10:42:21.397Z,97161.33
2018-08-14T10:44:49.078Z,97161.90
2018-08-14T10:47:16.625Z,97164.92
2018-08-14T10:49:44.130Z,97164.45
2018-08-14T10:52:11.619Z,97166.51
2018-08-14T10:54:39.119Z,97167.58
2018-08-14T10:57:06.683Z,97169.41
2018-08-14T10:59:33.882Z,97171.10
2018-08-14T11:02:01.352Z,97181.96
2018-08-14T11:04:28.820Z,97181.41
2018-08-14T11:06:56.275Z,97179.23
2018-08-14T11:09:23.755Z,97172.35
2018-08-14T11:11:51.252Z,97174.42
2018-08-14T11:14:18.752Z,97171.23
2018-08-14T11:16:46.160Z,97176.66
2018-08-14T11:19:13.618Z,97170.58
2018-08-14T11:21:41.108Z,97181.00
2018-08-14T11:24:08.577Z,97180.45
2018-08-14T11:26:36.005Z,97175.33
2018-08-14T11:29:03.486Z,97167.65
2018-08-14T11:31:30.923Z,97176.75
2018-08-14T11:33:58.422Z,97169.42
2018-08-14T11:36:25.945Z,97174.66
2018-08-14T11:38:53.429Z,97178.27
2018-08-14T11:41:20.859Z,97172.03
2018-08-14T11:43:48.328Z,97172.80
2018-08-14T11:46:15.923Z,97175.45
2018-08-14T11:48:43.471Z,97173.05
2018-08-14T11:51:10.981Z,97177.48
2018-08-14T11:53:38.468Z,97178.88
2018-08-14T11:56:05.941Z,97175.28
2018-08-14T11:58:33.415Z,97182.18
2018-08-14T12:01:00.887Z,97176.17
2018-08-14T12:03:28.389Z,97171.16
2018-08-14T12:05:55.867Z,97167.02
2018-08-14T12:08:23.324Z,97175.81
2018-08-14T12:10:50.805Z,97177.59
2018-08-14T12:13:18.388Z,97176.48
2018-08-14T12:15:45.836Z,97183.06
2018-08-14T12:18:13.411Z,97183.62
2018-08-14T12:20:40.850Z,97181.92
2018-08-14T12:23:08.384Z,97183.78
2018-08-14T12:25:35.859Z,97191.62
2018-08-14T12:28:03.367Z,97188.28
2018-08-14T12:30:30.354Z,97193.56
2018-08-14T12:32:57.417Z,97193.01
2018-08-14T12:35:24.613Z,97192.86
2018-08-14T12:37:51.971Z,97197.77
2018-08-14T12:40:19.031Z,97202.17
2018-08-14T12:42:46.029Z,97197.95
2018-08-14T12:45:13.534Z,97199.84
2018-08-14T12:47:40.572Z,97203.00
2018-08-14T12:50:08.038Z,97198.26
2018-08-14T12:52:35.042Z,97195.71
2018-08-14T12:55:02.061Z,97198.04
2018-08-14T12:57:29.085Z,97200.20
2018-08-14T12:59:56.664Z,97210.27
2018-08-14T13:02:23.779Z,97212.78
2018-08-14T13:04:51.179Z,97219.42
2018-08-14T13:07:18.628Z,97226.06
2018-08-14T13:09:46.098Z,97223.11
2018-08-14T13:12:13.603Z,97224.82
2018-08-14T13:14:42.047Z,97228.80
2018-08-14T13:17:09.555Z,97219.17
2018-08-14T13:19:37.179Z,97228.14
2018-08-14T13:22:04.651Z,97233.08
2018-08-14T13:24:32.324Z,97232.02
2018-08-14T13:26:59.768Z,97227.81
2018-08-14T13:29:27.334Z,97231.46
2018-08-14T13:31:54.923Z,97228.97
2018-08-14T13:34:22.404Z,97230.10
2018-08-14T13:36:49.850Z,97237.31
2018-08-14T13:39:17.257Z,97232.13
2018-08-14T13:41:44.732Z,97233.08
2018-08-14T13:44:12.173Z,97229.95
2018-08-14T13:46:39.581Z,97222.80
2018-08-14T13:49:07.068Z,97226.21
2018-08-14T13:51:34.528Z,97223.25
2018-08-14T13:54:02.038Z,97220.25
2018-08-14T13:56:29.644Z,97221.78
2018-08-14T13:58:57.150Z,97224.94
2018-08-14T14:01:24.584Z,97226.89
2018-08-14T14:03:52.044Z,97222.91
2018-08-14T14:06:19.441Z,97217.39
2018-08-14T14:08:46.879Z,97211.17
2018-08-14T14:11:14.369Z,97211.52
2018-08-14T14:13:41.838Z,97210.45
2018-08-14T14:16:10.066Z,97213.53
2018-08-14T14:18:37.551Z,97209.67
2018-08-14T14:21:05.097Z,97197.30
2018-08-14T14:23:32.547Z,97205.18
2018-08-14T14:26:00.139Z,97207.17
2018-08-14T14:28:28.321Z,97195.65
2018-08-14T14:30:55.789Z,97190.66
2018-08-14T14:33:23.256Z,97191.88
2018-08-14T14:35:50.777Z,97191.38
2018-08-14T14:38:18.236Z,97199.60
2018-08-14T14:40:45.695Z,97181.56
2018-08-14T14:43:13.202Z,97194.09
2018-08-14T14:45:40.621Z,97190.23
2018-08-14T14:48:08.086Z,97190.95
2018-08-14T14:50:35.593Z,97193.15
2018-08-14T14:53:03.140Z,97191.18
2018-08-14T14:55:30.538Z,97192.66
2018-08-14T14:57:58.093Z,97194.58
2018-08-14T15:00:25.648Z,97191.23
2018-08-14T15:02:53.240Z,97196.07
2018-08-14T15:05:20.748Z,97202.00
2018-08-14T15:07:48.230Z,97199.45
2018-08-14T15:10:15.770Z,97197.02
2018-08-14T15:12:43.341Z,97201.41
2018-08-14T15:15:10.745Z,97202.03
2018-08-14T15:17:38.345Z,97205.69
2018-08-14T15:20:05.822Z,97205.61
2018-08-14T15:22:33.238Z,97201.61
2018-08-14T15:25:01.384Z,97203.78
2018-08-14T15:27:28.807Z,97208.61
2018-08-14T15:29:56.303Z,97209.98
2018-08-14T15:32:23.729Z,97215.08
2018-08-14T15:34:51.170Z,97213.49
2018-08-14T15:37:18.631Z,97218.86
2018-08-14T15:39:46.102Z,97218.77
2018-08-14T15:42:13.540Z,97225.19
2018-08-14T15:44:40.956Z,97228.59
2018-08-14T15:47:08.504Z,97228.37
2018-08-14T15:49:36.167Z,97233.19
2018-08-14T15:52:03.503Z,97233.19
2018-08-14T15:54:31.083Z,97238.50
2018-08-14T15:56:58.545Z,97237.05
2018-08-14T15:59:25.997Z,97235.28
2018-08-14T16:01:53.514Z,97242.00
2018-08-14T16:04:21.631Z,97245.63
2018-08-14T16:06:49.063Z,97237.45
2018-08-14T16:09:16.617Z,97239.41
2018-08-14T16:11:44.083Z,97241.03
2018-08-14T16:14:11.524Z,97244.06
2018-08-14T16:16:38.979Z,97247.70
2018-08-14T16:19:06.421Z,97250.34
2018-08-14T16:21:33.918Z,97238.36
2018-08-14T16:24:02.285Z,97244.84
2018-08-14T16:26:29.736Z,97239.35
2018-08-14T16:28:57.201Z,97242.92
2018-08-14T16:31:24.662Z,97242.84
2018-08-14T16:33:52.124Z,97233.58
2018-08-14T16:36:19.621Z,97244.22
2018-08-14T16:38:47.038Z,97238.48
2018-08-14T16:41:14.560Z,97246.45
2018-08-14T16:43:42.033Z,97248.38
2018-08-14T16:46:09.510Z,97237.03
2018-08-14T16:48:36.969Z,97239.36
2018-08-14T16:51:04.451Z,97237.00
2018-08-14T16:53:31.893Z,97241.14
2018-08-14T16:55:59.394Z,97248.27
2018-08-14T16:58:26.895Z,97244.52
2018-08-14T17:00:54.388Z,97256.17
2018-08-14T17:03:21.814Z,97261.62
2018-08-14T17:05:49.904Z,97260.39
2018-08-14T17:08:17.404Z,97252.16
2018-08-14T17:10:45.599Z,97257.18
2018-08-14T17:13:13.047Z,97256.81
2018-08-14T17:15:40.473Z,97263.42
2018-08-14T17:18:07.992Z,97263.16
2018-08-14T17:20:34.946Z,97257.58
2018-08-14T17:23:02.367Z,97260.68
2018-08-14T17:25:29.871Z,97261.82
2018-08-14T17:27:57.455Z,97263.58
2018-08-14T17:30:25.055Z,97258.45
2018-08-14T17:32:52.551Z,97267.25
2018-08-14T17:35:19.956Z,97269.34
2018-08-14T17:37:47.404Z,97259.23
2018-08-14T17:40:14.954Z,97260.95
2018-08-14T17:42:42.426Z,97270.38
2018-08-14T17:45:10.826Z,97271.06
2018-08-14T17:47:38.296Z,97272.16
2018-08-14T17:50:05.785Z,97274.66
2018-08-14T17:52:33.288Z,97276.58
2018-08-14T17:55:01.137Z,97277.61
2018-08-14T17:57:28.617Z,97276.47
2018-08-14T17:59:56.225Z,97285.78
2018-08-14T18:02:23.735Z,97289.52
2018-08-14T18:04:51.210Z,97287.17
2018-08-14T18:07:18.634Z,97291.24
2018-08-14T18:09:46.121Z,97297.35
2018-08-14T18:12:13.592Z,97298.08
2018-08-14T18:14:41.052Z,97293.69
2018-08-14T18:17:08.506Z,97297.66
2018-08-14T18:19:36.019Z,97302.33
2018-08-14T18:22:03.437Z,97308.70
2018-08-14T18:24:30.930Z,97314.66
2018-08-14T18:26:58.352Z,97312.66
2018-08-14T18:29:25.888Z,97319.23
2018-08-14T18:31:53.338Z,97322.62
2018-08-14T18:34:20.795Z,97328.34
2018-08-14T18:36:48.249Z,97332.87
2018-08-14T18:39:15.715Z,97333.50
2018-08-14T18:41:43.180Z,97332.84
2018-08-14T18:44:10.703Z,97336.23
2018-08-14T18:46:38.163Z,97334.50
2018-08-14T18:49:05.851Z,97333.68
2018-08-14T18:51:33.299Z,97340.52
2018-08-14T18:54:00.798Z,97347.22
2018-08-14T18:56:28.283Z,97350.91
2018-08-14T18:58:55.719Z,97358.11
2018-08-14T19:01:23.155Z,97362.64
2018-08-14T19:03:50.656Z,97366.55
2018-08-14T19:06:18.104Z,97370.73
2018-08-14T19:08:45.593Z,97371.71
2018-08-14T19:11:13.110Z,97373.23
2018-08-14T19:13:40.675Z,97371.97
2018-08-14T19:16:08.168Z,97374.54
2018-08-14T19:18:35.649Z,97378.61
2018-08-14T19:21:04.192Z,97377.63
2018-08-14T19:23:31.767Z,97381.17
2018-08-14T19:25:59.232Z,97390.16
2018-08-14T19:28:26.687Z,97387.73
2018-08-14T19:30:54.096Z,97391.33
2018-08-14T19:33:21.538Z,97398.14
2018-08-14T19:35:48.998Z,97390.75
2018-08-14T19:38:16.432Z,97389.42
2018-08-14T19:40:43.889Z,97396.33
2018-08-14T19:43:11.484Z,97392.98
2018-08-14T19:45:38.865Z,97395.85
2018-08-14T19:48:06.345Z,97395.31
2018-08-14T19:50:33.855Z,97397.41
2018-08-14T19:53:01.317Z,97402.95
2018-08-14T19:55:28.955Z,97404.50
2018-08-14T19:57:56.399Z,97405.33
2018-08-14T20:00:23.882Z,97411.86
2018-08-14T20:02:51.405Z,97409.34
2018-08-14T20:05:18.815Z,97414.88
2018-08-14T20:07:46.311Z,97418.56
2018-08-14T20:10:13.791Z,97419.06
2018-08-14T20:12:41.260Z,97426.75
2018-08-14T20:15:08.699Z,97423.82
2018-08-14T20:17:36.323Z,97435.06
2018-08-14T20:20:03.738Z,97433.90
2018-08-14T20:22:31.190Z,97434.77
2018-08-14T20:24:58.709Z,97435.50
2018-08-14T20:27:26.142Z,97432.39
2018-08-14T20:29:53.674Z,97432.64
2018-08-14T20:32:22.072Z,97438.92
2018-08-14T20:34:49.477Z,97437.51
2018-08-14T20:37:16.977Z,97433.56
2018-08-14T20:39:44.614Z,97435.83
2018-08-14T20:42:12.044Z,97436.45
2018-08-14T20:44:39.505Z,97436.80
2018-08-14T20:47:07.079Z,97436.53
2018-08-14T20:49:34.588Z,97430.77
2018-08-14T20:52:01.979Z,97429.44
2018-08-14T20:54:29.457Z,97430.45
2018-08-14T20:56:56.910Z,97428.61
2018-08-14T20:59:24.380Z,97431.65
2018-08-14T21:01:51.807Z,97429.80
2018-08-14T21:04:19.223Z,97432.54
2018-08-14T21:06:46.758Z,97432.50
2018-08-14T21:09:14.194Z,97424.30
2018-08-14T21:11:41.665Z,97429.22
2018-08-14T21:14:09.111Z,97424.14
2018-08-14T21:16:37.078Z,97422.22
2018-08-14T21:19:04.496Z,97423.03
2018-08-14T21:21:31.967Z,97418.19
2018-08-14T21:23:59.479Z,97421.41
2018-08-14T21:26:27.007Z,97422.15
2018-08-14T21:28:54.469Z,97416.80
2018-08-14T21:31:21.870Z,97425.70
2018-08-14T21:33:49.285Z,97424.52
2018-08-14T21:36:16.776Z,97428.33
2018-08-14T21:38:44.203Z,97427.15
2018-08-14T21:41:11.598Z,97427.13
2018-08-14T21:43:39.049Z,97430.80
2018-08-14T21:46:06.714Z,97423.00
2018-08-14T21:48:34.155Z,97425.01
2018-08-14T21:51:01.633Z,97429.73
2018-08-14T21:53:29.039Z,97430.15
2018-08-14T21:55:56.502Z,97429.83
2018-08-14T21:58:24.015Z,97434.37
2018-08-14T22:00:51.439Z,97428.97
2018-08-14T22:03:18.927Z,97427.19
2018-08-14T22:05:46.326Z,97431.42
2018-08-14T22:08:13.867Z,97433.27
2018-08-14T22:10:41.303Z,97432.26
2018-08-14T22:13:08.721Z,97430.00
2018-08-14T22:15:36.136Z,97438.52
2018-08-14T22:18:03.600Z,97436.02
2018-08-14T22:20:31.066Z,97435.30
2018-08-14T22:22:58.498Z,97438.71
2018-08-14T22:25:25.956Z,97437.16
2018-08-14T22:27:53.698Z,97440.45
2018-08-14T22:30:21.198Z,97447.40
2018-08-14T22:32:48.591Z,97448.36
2018-08-14T22:35:16.031Z,97447.48
2018-08-14T22:37:43.447Z,97447.31
2018-08-14T22:40:10.866Z,97442.07
2018-08-14T22:42:38.313Z,97448.67
2018-08-14T22:45:05.768Z,97450.25
2018-08-14T22:47:33.227Z,97452.41
2018-08-14T22:50:00.712Z,97456.17
2018-08-14T22:52:28.201Z,97458.76
2018-08-14T22:54:55.784Z,97458.94
2018-08-14T22:57:23.191Z,97457.19
2018-08-14T22:59:50.653Z,97453.74
2018-08-14T23:02:18.148Z,97454.84
2018-08-14T23:04:45.792Z,97458.11
2018-08-14T23:07:13.267Z,97461.72
2018-08-14T23:09:40.681Z,97458.09
2018-08-14T23:12:08.162Z,97458.30
2018-08-14T23:14:35.588Z,97455.68
2018-08-14T23:17:02.985Z,97448.60
2018-08-14T23:19:30.397Z,97452.46
2018-08-14T23:21:57.914Z,97451.77
2018-08-14T23:24:25.434Z,97450.58
2018-08-14T23:26:52.875Z,97443.95
2018-08-14T23:29:20.730Z,97438.82
2018-08-14T23:31:48.148Z,97433.72
2018-08-14T23:34:15.609Z,97443.09
2018-08-14T23:36:43.097Z,97436.85
2018-08-14T23:39:10.557Z,97438.05
2018-08-14T23:41:38.019Z,97443.45
2018-08-14T23:44:05.577Z,97442.02
2018-08-14T23:46:33.083Z,97444.50
2018-08-14T23:49:00.528Z,97439.57
2018-08-14T23:51:27.986Z,97441.81
2018-08-14T23:53:55.425Z,97441.97
2018-08-14T23:56:22.851Z,97450.27
2018-08-14T23:58:50.362Z,97446.59
